Time;durP1;ratioP1;P1;durP2;ratioP2;P2;SDS_P1;SDS_P2;PMS_P1;PMS_P2;Temp;Humidity;BMP_temperature;BMP_pressure;BME280_temperature;BME280_humidity;BME280_pressure;Samples;Min_cycle;Max_cycle;Signal;HPM_P1;HPM_P2
2022/03/28 00:00:00;;;;;;;;;;;6.30;99.90;;;;;;5027199;28;19920;-74
2022/03/28 00:02:26;;;;;;;;;;;6.30;99.90;;;;;;5026287;28;19972;-73
2022/03/28 00:04:51;;;;;;;;;;;6.30;99.90;;;;;;5053885;28;19916;-73
2022/03/28 00:07:17;;;;;;;;;;;6.20;99.90;;;;;;5042468;28;19952;-73
2022/03/28 00:09:43;;;;;;;;;;;6.20;99.90;;;;;;5037430;28;19921;-74
2022/03/28 00:12:08;;;;;;;;;;;6.10;99.90;;;;;;5042004;28;19921;-74
2022/03/28 00:14:34;;;;;;;;;;;6.10;99.90;;;;;;5042760;28;20323;-74
2022/03/28 00:17:00;;;;;;;;;;;5.90;99.90;;;;;;5043758;28;19931;-74
2022/03/28 00:19:25;;;;;;;;;;;5.70;99.90;;;;;;5051413;28;19951;-74
2022/03/28 00:21:51;;;;;;;;;;;5.40;99.90;;;;;;5040016;28;19913;-74
2022/03/28 00:24:17;;;;;;;;;;;5.20;99.90;;;;;;5048788;28;19920;-74
2022/03/28 00:26:43;;;;;;;;;;;5.10;99.90;;;;;;5037590;28;19913;-82
2022/03/28 00:29:08;;;;;;;;;;;5.20;99.90;;;;;;5026404;28;20303;-74
2022/03/28 00:31:34;;;;;;;;;;;5.20;99.90;;;;;;5049303;28;19917;-73
2022/03/28 00:33:59;;;;;;;;;;;5.40;99.90;;;;;;5025736;28;19918;-74
2022/03/28 00:36:25;;;;;;;;;;;5.50;99.90;;;;;;5051940;28;19917;-73
2022/03/28 00:38:51;;;;;;;;;;;5.50;99.90;;;;;;5048568;28;19913;-74
2022/03/28 00:41:17;;;;;;;;;;;5.40;99.90;;;;;;5025856;28;19932;-73
2022/03/28 00:43:53;;;;;;;;;;;5.40;99.90;;;;;;5048611;28;19994;-74
2022/03/28 00:46:18;;;;;;;;;;;5.40;99.90;;;;;;5047026;28;19913;-74
2022/03/28 00:48:44;;;;;;;;;;;5.50;99.90;;;;;;5051224;28;19939;-73
2022/03/28 00:51:09;;;;;;;;;;;5.50;99.90;;;;;;5053027;28;19947;-73
2022/03/28 00:53:35;;;;;;;;;;;5.50;99.90;;;;;;5046177;28;19913;-74
2022/03/28 00:56:00;;;;;;;;;;;5.40;99.90;;;;;;5047102;28;19913;-74
2022/03/28 00:58:26;;;;;;;;;;;5.40;99.90;;;;;;5048598;28;19928;-74
2022/03/28 01:00:52;;;;;;;;;;;5.40;99.90;;;;;;5029633;28;19919;-74
2022/03/28 01:03:17;;;;;;;;;;;5.50;99.90;;;;;;5049025;28;19916;-73
2022/03/28 01:05:43;;;;;;;;;;;5.40;99.90;;;;;;5040662;28;19970;-74
2022/03/28 01:08:08;;;;;;;;;;;5.40;99.90;;;;;;5047874;28;19920;-74
2022/03/28 01:10:34;;;;;;;;;;;5.40;99.90;;;;;;5021271;28;19921;-74
2022/03/28 01:13:00;;;;;;;;;;;5.40;99.90;;;;;;5048581;28;20043;-74
2022/03/28 01:15:26;;;;;;;;;;;5.30;99.90;;;;;;5055039;28;19921;-74
2022/03/28 01:18:08;;;;;;;;;;;5.40;99.90;;;;;;5041193;28;19952;-74
2022/03/28 01:20:36;;;;;;;;;;;5.30;99.90;;;;;;5030579;28;19920;-74
2022/03/28 01:23:01;;;;;;;;;;;5.30;99.90;;;;;;5038105;28;20231;-74
2022/03/28 01:25:29;;;;;;;;;;;5.30;99.90;;;;;;5040746;28;19942;-74
2022/03/28 01:27:55;;;;;;;;;;;5.20;99.90;;;;;;5033922;28;19949;-74
2022/03/28 01:30:21;;;;;;;;;;;5.20;99.90;;;;;;5030968;28;19972;-74
2022/03/28 01:32:47;;;;;;;;;;;5.10;99.90;;;;;;5046543;28;19917;-74
2022/03/28 01:35:12;;;;;;;;;;;5.00;99.90;;;;;;5054771;28;20227;-74
2022/03/28 01:37:38;;;;;;;;;;;4.90;99.90;;;;;;5027111;28;19913;-74
2022/03/28 01:40:04;;;;;;;;;;;4.90;99.90;;;;;;5051465;28;20215;-74
2022/03/28 01:42:30;;;;;;;;;;;4.90;99.90;;;;;;5059713;28;19932;-74
2022/03/28 01:44:57;;;;;;;;;;;4.80;99.90;;;;;;5029003;28;20299;-74
2022/03/28 01:47:25;;;;;;;;;;;4.90;99.90;;;;;;5062479;28;19923;-74
2022/03/28 01:49:51;;;;;;;;;;;4.80;99.90;;;;;;5052508;28;20300;-74
2022/03/28 01:52:18;;;;;;;;;;;4.80;99.90;;;;;;5050955;28;19916;-74
2022/03/28 01:54:44;;;;;;;;;;;4.80;99.90;;;;;;5029166;28;19917;-74
2022/03/28 01:57:09;;;;;;;;;;;4.80;99.90;;;;;;5049913;28;20003;-74
2022/03/28 01:59:35;;;;;;;;;;;4.80;99.90;;;;;;5068067;28;19935;-74
2022/03/28 02:02:00;;;;;;;;;;;4.70;99.90;;;;;;5053060;28;20306;-74
2022/03/28 02:04:26;;;;;;;;;;;4.70;99.90;;;;;;5019268;28;19920;-74
2022/03/28 02:06:52;;;;;;;;;;;4.70;99.90;;;;;;5038340;28;19932;-74
2022/03/28 02:09:17;;;;;;;;;;;4.70;99.90;;;;;;5050891;28;19959;-73
2022/03/28 02:11:43;;;;;;;;;;;4.70;99.90;;;;;;5046313;28;19928;-74
2022/03/28 02:14:08;;;;;;;;;;;4.60;99.90;;;;;;5027974;28;19992;-74
2022/03/28 02:16:34;;;;;;;;;;;4.60;99.90;;;;;;5054405;28;20365;-74
2022/03/28 02:18:59;;;;;;;;;;;4.50;99.90;;;;;;5048651;28;19934;-74
2022/03/28 02:21:25;;;;;;;;;;;4.60;99.90;;;;;;5054354;28;19956;-74
2022/03/28 02:23:50;;;;;;;;;;;4.60;99.90;;;;;;5037955;28;19921;-74
2022/03/28 02:26:16;;;;;;;;;;;4.60;99.90;;;;;;5047878;28;19917;-74
2022/03/28 02:28:41;;;;;;;;;;;4.60;99.90;;;;;;5023262;28;19956;-74
2022/03/28 02:31:07;;;;;;;;;;;4.40;99.90;;;;;;5052318;28;19963;-74
2022/03/28 02:33:33;;;;;;;;;;;4.50;99.90;;;;;;5049644;28;19913;-74
2022/03/28 02:35:58;;;;;;;;;;;4.50;99.90;;;;;;5056994;28;20352;-74
2022/03/28 02:38:24;;;;;;;;;;;4.50;99.90;;;;;;5049294;28;19913;-75
2022/03/28 02:40:50;;;;;;;;;;;4.50;99.90;;;;;;5023680;28;19917;-74
2022/03/28 02:43:16;;;;;;;;;;;4.50;99.90;;;;;;5030666;28;19913;-74
2022/03/28 02:45:42;;;;;;;;;;;4.50;99.90;;;;;;5035355;28;19943;-74
2022/03/28 02:48:08;;;;;;;;;;;4.50;99.90;;;;;;5046545;28;19917;-74
2022/03/28 02:50:34;;;;;;;;;;;4.50;99.90;;;;;;5052770;28;20281;-74
2022/03/28 02:52:59;;;;;;;;;;;4.50;99.90;;;;;;5048025;28;19936;-74
2022/03/28 02:55:25;;;;;;;;;;;4.50;99.90;;;;;;5035437;28;19913;-74
2022/03/28 02:57:52;;;;;;;;;;;4.60;99.90;;;;;;5049502;28;19919;-74
2022/03/28 03:00:18;;;;;;;;;;;4.50;99.90;;;;;;5053581;28;20062;-74
2022/03/28 03:02:44;;;;;;;;;;;4.50;99.90;;;;;;5047151;28;20261;-74
2022/03/28 03:05:11;;;;;;;;;;;4.50;99.90;;;;;;5030058;28;19920;-74
2022/03/28 03:07:36;;;;;;;;;;;4.40;99.90;;;;;;5045752;28;19982;-74
2022/03/28 03:10:02;;;;;;;;;;;4.40;99.90;;;;;;5038468;28;20318;-73
2022/03/28 03:12:28;;;;;;;;;;;4.40;99.90;;;;;;5042476;28;19917;-74
2022/03/28 03:14:53;;;;;;;;;;;4.40;99.90;;;;;;5050643;28;19927;-74
2022/03/28 03:17:20;;;;;;;;;;;4.40;99.90;;;;;;5045047;28;19952;-74
2022/03/28 03:19:45;;;;;;;;;;;4.30;99.90;;;;;;5045860;28;20319;-74
2022/03/28 03:22:12;;;;;;;;;;;4.30;99.90;;;;;;5044118;28;19917;-74
2022/03/28 03:24:37;;;;;;;;;;;4.20;99.90;;;;;;5048887;28;19913;-74
2022/03/28 03:27:03;;;;;;;;;;;4.10;99.90;;;;;;5048137;28;19954;-74
2022/03/28 03:29:29;;;;;;;;;;;4.10;99.90;;;;;;5056315;28;19947;-74
2022/03/28 03:31:54;;;;;;;;;;;3.90;99.90;;;;;;5042256;28;19917;-75
2022/03/28 03:34:20;;;;;;;;;;;3.90;99.90;;;;;;5045886;28;19952;-74
2022/03/28 03:36:46;;;;;;;;;;;3.80;99.90;;;;;;5051830;28;20302;-74
2022/03/28 03:39:11;;;;;;;;;;;3.80;99.90;;;;;;5046882;28;19951;-74
2022/03/28 03:41:37;;;;;;;;;;;3.80;99.90;;;;;;5027914;28;20219;-75
2022/03/28 03:44:02;;;;;;;;;;;3.80;99.90;;;;;;5047997;28;20259;-75
2022/03/28 03:46:28;;;;;;;;;;;3.80;99.90;;;;;;5027631;28;20320;-74
2022/03/28 03:48:54;;;;;;;;;;;3.80;99.90;;;;;;5056090;28;20307;-75
2022/03/28 03:51:19;;;;;;;;;;;3.90;99.90;;;;;;5036498;28;20000;-75
2022/03/28 03:53:45;;;;;;;;;;;3.90;99.90;;;;;;5041872;28;19920;-74
2022/03/28 03:56:11;;;;;;;;;;;3.90;99.90;;;;;;5051969;28;19925;-74
2022/03/28 03:58:36;;;;;;;;;;;3.90;99.90;;;;;;5049196;28;20275;-75
2022/03/28 04:01:02;;;;;;;;;;;4.00;99.90;;;;;;5041614;28;19917;-74
2022/03/28 04:03:28;;;;;;;;;;;4.00;99.90;;;;;;5021986;28;20315;-75
2022/03/28 04:05:53;;;;;;;;;;;4.00;99.90;;;;;;5058093;28;19921;-74
2022/03/28 04:08:19;;;;;;;;;;;4.00;99.90;;;;;;5033408;28;19948;-74
2022/03/28 04:10:45;;;;;;;;;;;4.00;99.90;;;;;;5047325;28;19952;-75
2022/03/28 04:13:10;;;;;;;;;;;4.00;99.90;;;;;;5047686;28;19951;-75
2022/03/28 04:15:36;;;;;;;;;;;4.00;99.90;;;;;;5053557;28;20315;-74
2022/03/28 04:18:01;;;;;;;;;;;4.10;99.90;;;;;;5033481;28;20006;-75
2022/03/28 04:20:29;;;;;;;;;;;4.10;99.90;;;;;;5031003;28;19909;-74
2022/03/28 04:22:55;;;;;;;;;;;4.10;99.90;;;;;;5033872;28;20556;-76
2022/03/28 04:25:20;;;;;;;;;;;4.10;99.90;;;;;;5045498;28;19952;-75
2022/03/28 04:27:46;;;;;;;;;;;4.20;99.90;;;;;;5027537;28;19939;-75
2022/03/28 04:30:12;;;;;;;;;;;4.20;99.90;;;;;;5055316;28;19928;-75
2022/03/28 04:32:38;;;;;;;;;;;4.10;99.90;;;;;;5029424;28;19945;-75
2022/03/28 04:35:04;;;;;;;;;;;4.10;99.90;;;;;;5042147;28;20333;-75
2022/03/28 04:37:33;;;;;;;;;;;4.10;99.90;;;;;;5047473;28;19912;-82
2022/03/28 04:39:59;;;;;;;;;;;4.20;99.90;;;;;;5043130;28;20362;-77
2022/03/28 04:42:25;;;;;;;;;;;4.20;99.90;;;;;;5048189;28;19917;-75
2022/03/28 04:44:50;;;;;;;;;;;4.10;99.90;;;;;;5031387;28;19925;-75
2022/03/28 04:47:16;;;;;;;;;;;4.20;99.90;;;;;;5027178;28;19924;-74
2022/03/28 04:49:41;;;;;;;;;;;4.20;99.90;;;;;;5032593;28;19917;-81
2022/03/28 04:52:07;;;;;;;;;;;4.10;99.90;;;;;;5033324;28;19925;-75
2022/03/28 04:54:33;;;;;;;;;;;4.10;99.90;;;;;;5025100;28;19912;-75
2022/03/28 04:56:58;;;;;;;;;;;4.20;99.90;;;;;;5030592;28;19917;-75
2022/03/28 04:59:24;;;;;;;;;;;4.20;99.90;;;;;;5052608;28;19920;-75
2022/03/28 05:01:49;;;;;;;;;;;4.20;99.90;;;;;;5043160;28;20280;-75
2022/03/28 05:04:15;;;;;;;;;;;4.30;99.90;;;;;;5051814;28;19913;-75
2022/03/28 05:06:41;;;;;;;;;;;4.20;99.90;;;;;;5045693;28;20206;-75
2022/03/28 05:09:06;;;;;;;;;;;4.30;99.90;;;;;;5043859;28;19939;-75
2022/03/28 05:11:32;;;;;;;;;;;4.30;99.90;;;;;;5044127;28;19921;-75
2022/03/28 05:14:00;;;;;;;;;;;4.40;99.90;;;;;;5051208;28;19913;-82
2022/03/28 05:16:26;;;;;;;;;;;4.40;99.90;;;;;;5051529;28;20039;-75
2022/03/28 05:18:51;;;;;;;;;;;4.40;99.90;;;;;;5046598;28;19959;-75
2022/03/28 05:21:17;;;;;;;;;;;4.40;99.90;;;;;;5048383;28;19917;-75
2022/03/28 05:23:43;;;;;;;;;;;4.40;99.90;;;;;;5049136;28;19913;-76
2022/03/28 05:26:09;;;;;;;;;;;4.40;99.90;;;;;;5032561;28;20478;-75
2022/03/28 05:28:35;;;;;;;;;;;4.40;99.90;;;;;;5046180;28;20219;-75
2022/03/28 05:31:00;;;;;;;;;;;4.40;99.90;;;;;;5051155;28;19943;-75
2022/03/28 05:33:26;;;;;;;;;;;4.40;99.90;;;;;;5050670;28;20017;-75
2022/03/28 05:35:52;;;;;;;;;;;4.40;99.90;;;;;;5048089;28;19924;-74
2022/03/28 05:38:20;;;;;;;;;;;4.40;99.90;;;;;;5053381;28;19913;-75
2022/03/28 05:40:46;;;;;;;;;;;4.40;99.90;;;;;;5027771;28;19918;-74
2022/03/28 05:43:12;;;;;;;;;;;4.40;99.90;;;;;;5051000;28;19975;-74
2022/03/28 05:45:37;;;;;;;;;;;4.40;99.90;;;;;;5051701;28;19913;-81
2022/03/28 05:48:03;;;;;;;;;;;4.50;99.90;;;;;;5049055;28;19925;-76
2022/03/28 05:50:29;;;;;;;;;;;4.50;99.90;;;;;;5051756;28;19916;-80
2022/03/28 05:52:55;;;;;;;;;;;4.40;99.90;;;;;;5038261;28;19965;-75
2022/03/28 05:55:21;;;;;;;;;;;4.40;99.90;;;;;;5037437;28;19984;-81
2022/03/28 05:57:46;;;;;;;;;;;4.40;99.90;;;;;;5051526;28;19924;-76
2022/03/28 06:00:14;;;;;;;;;;;4.40;99.90;;;;;;5048503;28;19913;-75
2022/03/28 06:02:43;;;;;;;;;;;4.50;99.90;;;;;;5052038;28;19927;-75
2022/03/28 06:05:10;;;;;;;;;;;4.40;99.90;;;;;;5056601;28;19913;-75
2022/03/28 06:07:35;;;;;;;;;;;4.40;99.90;;;;;;5052235;28;19913;-76
2022/03/28 06:10:01;;;;;;;;;;;4.30;99.90;;;;;;5051192;28;19966;-75
2022/03/28 06:12:27;;;;;;;;;;;4.30;99.90;;;;;;5037291;28;19917;-77
2022/03/28 06:14:52;;;;;;;;;;;4.20;99.90;;;;;;5053638;28;19912;-74
2022/03/28 06:17:22;;;;;;;;;;;4.20;99.90;;;;;;5055868;28;19920;-75
2022/03/28 06:19:47;;;;;;;;;;;4.30;99.90;;;;;;5053857;28;19979;-74
2022/03/28 06:22:13;;;;;;;;;;;4.30;99.90;;;;;;5038560;28;19917;-74
2022/03/28 06:24:38;;;;;;;;;;;4.30;99.90;;;;;;5033635;28;19916;-74
2022/03/28 06:27:04;;;;;;;;;;;4.30;99.90;;;;;;5055452;28;19936;-74
2022/03/28 06:29:30;;;;;;;;;;;4.40;99.90;;;;;;5051496;28;20304;-74
2022/03/28 06:31:55;;;;;;;;;;;4.40;99.90;;;;;;5020445;28;19936;-74
2022/03/28 06:34:21;;;;;;;;;;;4.50;99.90;;;;;;5053405;28;19920;-74
2022/03/28 06:36:47;;;;;;;;;;;4.60;99.90;;;;;;5053064;28;19913;-74
2022/03/28 06:39:13;;;;;;;;;;;4.50;99.90;;;;;;5036996;28;19920;-74
2022/03/28 06:41:39;;;;;;;;;;;4.50;99.90;;;;;;5052211;28;20307;-74
2022/03/28 06:44:07;;;;;;;;;;;4.50;99.90;;;;;;5054132;28;19913;-74
2022/03/28 06:46:33;;;;;;;;;;;4.40;99.90;;;;;;5053604;28;19928;-83
2022/03/28 06:48:59;;;;;;;;;;;4.60;99.90;;;;;;5036874;28;19917;-75
2022/03/28 06:51:26;;;;;;;;;;;4.70;99.90;;;;;;5051024;28;19917;-74
2022/03/28 06:53:52;;;;;;;;;;;4.80;99.90;;;;;;5054624;28;20019;-74
2022/03/28 06:56:17;;;;;;;;;;;4.80;99.90;;;;;;5036101;28;19995;-75
2022/03/28 06:58:43;;;;;;;;;;;4.90;99.90;;;;;;5036029;28;19967;-75
2022/03/28 07:01:10;;;;;;;;;;;4.80;99.90;;;;;;5033116;28;19913;-74
2022/03/28 07:03:36;;;;;;;;;;;4.80;99.90;;;;;;5054827;28;19928;-74
2022/03/28 07:06:02;;;;;;;;;;;4.70;99.90;;;;;;5049509;28;20256;-74
2022/03/28 07:08:29;;;;;;;;;;;4.80;99.90;;;;;;5051571;28;20004;-74
2022/03/28 07:10:55;;;;;;;;;;;4.70;99.90;;;;;;5036600;28;19920;-74
2022/03/28 07:13:22;;;;;;;;;;;4.70;99.90;;;;;;5055493;28;20315;-74
2022/03/28 07:15:48;;;;;;;;;;;4.70;99.90;;;;;;5036968;28;19920;-75
2022/03/28 07:18:14;;;;;;;;;;;4.70;99.90;;;;;;5054741;28;20239;-74
2022/03/28 07:20:40;;;;;;;;;;;4.80;99.90;;;;;;5052799;28;20319;-74
2022/03/28 07:23:05;;;;;;;;;;;4.90;99.90;;;;;;5052339;28;19948;-75
2022/03/28 07:25:32;;;;;;;;;;;4.90;99.90;;;;;;5054804;28;19916;-74
2022/03/28 07:27:58;;;;;;;;;;;4.90;99.90;;;;;;5053910;28;20207;-74
2022/03/28 07:30:24;;;;;;;;;;;4.90;99.90;;;;;;5033456;28;20316;-74
2022/03/28 07:32:53;;;;;;;;;;;4.90;99.90;;;;;;5033031;28;20007;-75
2022/03/28 07:35:21;;;;;;;;;;;5.00;99.90;;;;;;5032301;28;19917;-74
2022/03/28 07:37:47;;;;;;;;;;;4.90;99.90;;;;;;5034147;28;19921;-74
2022/03/28 07:40:13;;;;;;;;;;;4.90;99.90;;;;;;5031077;28;19917;-75
2022/03/28 07:42:40;;;;;;;;;;;5.00;99.90;;;;;;5024820;28;19925;-74
2022/03/28 07:45:08;;;;;;;;;;;5.10;99.90;;;;;;5027699;28;19917;-74
2022/03/28 07:47:34;;;;;;;;;;;5.10;99.90;;;;;;5027458;28;20189;-74
2022/03/28 07:50:02;;;;;;;;;;;5.20;99.90;;;;;;5033141;28;19913;-75
2022/03/28 07:52:28;;;;;;;;;;;5.10;99.90;;;;;;5032448;28;19921;-85
2022/03/28 07:54:54;;;;;;;;;;;5.20;99.90;;;;;;5032459;28;20304;-74
2022/03/28 07:57:19;;;;;;;;;;;5.20;99.90;;;;;;5032931;28;19921;-74
2022/03/28 07:59:47;;;;;;;;;;;5.20;99.90;;;;;;5031501;28;19967;-74
2022/03/28 08:02:13;;;;;;;;;;;5.20;99.90;;;;;;5031131;28;19967;-74
2022/03/28 08:04:38;;;;;;;;;;;5.30;99.90;;;;;;5031258;28;20292;-74
2022/03/28 08:07:07;;;;;;;;;;;5.40;99.90;;;;;;5028895;28;19924;-74
2022/03/28 08:09:33;;;;;;;;;;;5.30;99.90;;;;;;5026282;28;19979;-75
2022/03/28 08:11:59;;;;;;;;;;;5.40;99.90;;;;;;5042883;28;20379;-74
2022/03/28 08:14:25;;;;;;;;;;;5.50;99.90;;;;;;5027602;28;20311;-75
2022/03/28 08:16:51;;;;;;;;;;;5.50;99.90;;;;;;5030995;28;19924;-74
2022/03/28 08:19:17;;;;;;;;;;;5.50;99.90;;;;;;5028563;28;19956;-74
2022/03/28 08:21:43;;;;;;;;;;;5.30;99.90;;;;;;5026626;28;19951;-75
2022/03/28 08:24:09;;;;;;;;;;;5.40;99.90;;;;;;5030220;28;20219;-74
2022/03/28 08:26:34;;;;;;;;;;;5.50;99.90;;;;;;5028433;28;20332;-74
2022/03/28 08:29:00;;;;;;;;;;;5.60;99.90;;;;;;5028673;28;19932;-74
2022/03/28 08:31:28;;;;;;;;;;;5.70;99.90;;;;;;5027392;28;19920;-75
2022/03/28 08:33:56;;;;;;;;;;;5.80;99.90;;;;;;5028898;28;20206;-75
2022/03/28 08:36:22;;;;;;;;;;;5.90;99.90;;;;;;5029257;28;19991;-75
2022/03/28 08:38:47;;;;;;;;;;;6.10;99.90;;;;;;5026213;28;19917;-74
2022/03/28 08:41:14;;;;;;;;;;;6.10;99.90;;;;;;5028017;28;19913;-75
2022/03/28 08:43:40;;;;;;;;;;;6.00;99.90;;;;;;5026221;28;20016;-75
2022/03/28 08:46:08;;;;;;;;;;;6.00;99.90;;;;;;5054725;28;20315;-74
2022/03/28 08:48:35;;;;;;;;;;;6.20;99.90;;;;;;5026094;28;20216;-75
2022/03/28 08:51:01;;;;;;;;;;;6.30;99.90;;;;;;5029041;28;20027;-74
2022/03/28 08:53:27;;;;;;;;;;;6.40;99.90;;;;;;5027470;28;19917;-84
2022/03/28 08:55:52;;;;;;;;;;;6.60;99.90;;;;;;5028154;28;19996;-74
2022/03/28 08:58:18;;;;;;;;;;;6.70;99.90;;;;;;5028339;28;19924;-74
2022/03/28 09:00:44;;;;;;;;;;;7.00;99.90;;;;;;5026295;28;20327;-74
2022/03/28 09:03:10;;;;;;;;;;;7.20;99.90;;;;;;5028889;28;19917;-74
2022/03/28 09:05:36;;;;;;;;;;;7.20;99.90;;;;;;5029018;28;19917;-75
2022/03/28 09:08:03;;;;;;;;;;;7.30;99.90;;;;;;5026501;28;19920;-74
2022/03/28 09:10:32;;;;;;;;;;;7.20;99.90;;;;;;5025921;28;19929;-74
2022/03/28 09:13:02;;;;;;;;;;;7.20;99.90;;;;;;5022245;28;19983;-75
2022/03/28 09:15:44;;;;;;;;;;;7.40;99.90;;;;;;5028404;28;19975;-75
2022/03/28 09:18:20;;;;;;;;;;;7.70;99.90;;;;;;5028460;28;19964;-75
2022/03/28 09:20:50;;;;;;;;;;;7.70;99.90;;;;;;5027179;28;20323;-74
2022/03/28 09:23:30;;;;;;;;;;;7.60;99.90;;;;;;5030254;28;19917;-74
2022/03/28 09:25:56;;;;;;;;;;;7.30;99.90;;;;;;5017546;28;20662;-74
2022/03/28 09:28:46;;;;;;;;;;;7.30;99.90;;;;;;5032482;28;19921;-74
2022/03/28 09:31:16;;;;;;;;;;;7.40;99.90;;;;;;5050229;28;20023;-75
2022/03/28 09:33:51;;;;;;;;;;;7.60;99.90;;;;;;5051741;28;19917;-75
2022/03/28 09:36:17;;;;;;;;;;;7.90;99.90;;;;;;5033809;28;19916;-74
2022/03/28 09:38:56;;;;;;;;;;;8.20;99.90;;;;;;5050568;28;20003;-74
2022/03/28 09:41:24;;;;;;;;;;;8.20;99.90;;;;;;5033548;28;19921;-75
2022/03/28 09:43:54;;;;;;;;;;;8.10;99.90;;;;;;5053303;28;19921;-74
2022/03/28 09:46:26;;;;;;;;;;;8.10;99.90;;;;;;5034384;28;19916;-74
2022/03/28 09:48:53;;;;;;;;;;;8.10;99.90;;;;;;5051797;28;19924;-74
2022/03/28 09:51:21;;;;;;;;;;;8.20;99.90;;;;;;5051110;28;19924;-74
2022/03/28 09:53:47;;;;;;;;;;;8.10;99.90;;;;;;5053499;28;19913;-74
2022/03/28 09:56:13;;;;;;;;;;;8.10;99.90;;;;;;5048431;28;20200;-74
2022/03/28 09:58:46;;;;;;;;;;;8.30;99.90;;;;;;5032813;28;19974;-75
2022/03/28 10:01:23;;;;;;;;;;;8.30;99.90;;;;;;5049583;28;19927;-74
2022/03/28 10:03:50;;;;;;;;;;;8.30;99.90;;;;;;5048306;28;19932;-75
2022/03/28 10:06:15;;;;;;;;;;;8.40;99.90;;;;;;5049963;28;19927;-74
2022/03/28 10:08:41;;;;;;;;;;;8.60;99.90;;;;;;5032907;28;19917;-74
2022/03/28 10:11:08;;;;;;;;;;;8.40;99.90;;;;;;5052115;28;19920;-75
2022/03/28 10:13:34;;;;;;;;;;;8.40;99.90;;;;;;5031323;28;19916;-74
2022/03/28 10:16:00;;;;;;;;;;;8.60;99.90;;;;;;5049099;28;19962;-76
2022/03/28 10:18:29;;;;;;;;;;;8.60;99.90;;;;;;5031409;28;20583;-75
2022/03/28 10:20:56;;;;;;;;;;;8.60;99.90;;;;;;5032576;28;19916;-74
2022/03/28 10:23:27;;;;;;;;;;;8.70;99.90;;;;;;5047586;28;20081;-74
2022/03/28 10:25:55;;;;;;;;;;;8.60;99.90;;;;;;5052020;28;19919;-74
2022/03/28 10:28:20;;;;;;;;;;;8.50;99.90;;;;;;5050814;28;19917;-74
2022/03/28 10:30:46;;;;;;;;;;;8.40;99.90;;;;;;5046982;28;19970;-75
2022/03/28 10:33:17;;;;;;;;;;;8.60;99.90;;;;;;5034314;28;20224;-85
2022/03/28 10:35:58;;;;;;;;;;;8.70;99.90;;;;;;5041256;28;19997;-75
2022/03/28 10:38:24;;;;;;;;;;;8.60;99.90;;;;;;5015076;28;20243;-74
2022/03/28 10:40:54;;;;;;;;;;;8.60;99.90;;;;;;5044430;28;19917;-74
2022/03/28 10:43:19;;;;;;;;;;;8.80;99.90;;;;;;5045776;28;19917;-75
2022/03/28 10:45:49;;;;;;;;;;;8.80;99.90;;;;;;5043713;28;19921;-74
2022/03/28 10:48:16;;;;;;;;;;;8.60;99.90;;;;;;5048294;28;19975;-74
2022/03/28 10:50:51;;;;;;;;;;;8.90;99.90;;;;;;5047316;28;20243;-74
2022/03/28 10:53:33;;;;;;;;;;;9.30;99.90;;;;;;5030831;28;19944;-74
2022/03/28 10:56:00;;;;;;;;;;;9.10;99.90;;;;;;5048831;28;20005;-73
2022/03/28 10:58:30;;;;;;;;;;;8.90;99.90;;;;;;5031608;28;19917;-74
2022/03/28 11:01:08;;;;;;;;;;;9.20;99.90;;;;;;5052243;28;19916;-74
2022/03/28 11:03:36;;;;;;;;;;;9.30;99.90;;;;;;5051326;28;19917;-87
2022/03/28 11:06:02;;;;;;;;;;;9.30;99.90;;;;;;5032334;28;19921;-74
2022/03/28 11:08:36;;;;;;;;;;;9.10;99.90;;;;;;5032628;28;19980;-74
2022/03/28 11:11:21;;;;;;;;;;;9.00;99.90;;;;;;5048489;28;19921;-74
2022/03/28 11:14:16;;;;;;;;;;;9.20;99.90;;;;;;5031497;28;20223;-74
2022/03/28 11:16:41;;;;;;;;;;;9.40;99.90;;;;;;5017919;28;19916;-74
2022/03/28 11:19:19;;;;;;;;;;;9.50;99.90;;;;;;5044850;28;19927;-74
2022/03/28 11:22:00;;;;;;;;;;;9.40;99.90;;;;;;5048749;28;19943;-74
2022/03/28 11:24:44;;;;;;;;;;;9.40;99.90;;;;;;5050303;28;19967;-74
2022/03/28 11:27:10;;;;;;;;;;;9.70;99.90;;;;;;5050981;28;20338;-74
2022/03/28 11:29:35;;;;;;;;;;;9.60;99.90;;;;;;5032400;28;19925;-74
2022/03/28 11:32:12;;;;;;;;;;;9.70;99.90;;;;;;5032542;28;19936;-74
2022/03/28 11:34:38;;;;;;;;;;;9.60;99.90;;;;;;5033039;28;20310;-74
2022/03/28 11:37:04;;;;;;;;;;;9.80;99.90;;;;;;5030772;28;19927;-74
2022/03/28 11:39:31;;;;;;;;;;;9.90;99.90;;;;;;5032105;28;19931;-83
2022/03/28 11:42:03;;;;;;;;;;;9.80;99.90;;;;;;5049449;28;19923;-74
2022/03/28 11:44:34;;;;;;;;;;;9.90;99.90;;;;;;5032729;28;19917;-74
2022/03/28 11:47:03;;;;;;;;;;;9.80;99.90;;;;;;5047525;28;19923;-74
2022/03/28 11:49:29;;;;;;;;;;;9.50;99.90;;;;;;5031264;28;19963;-74
2022/03/28 11:51:54;;;;;;;;;;;9.60;99.90;;;;;;5049383;28;20470;-74
2022/03/28 11:54:22;;;;;;;;;;;9.60;99.90;;;;;;5050585;28;20223;-74
2022/03/28 11:59:37;;;;;;;;;;;9.40;99.90;;;;;;5048617;28;19988;-74
2022/03/28 12:02:06;;;;;;;;;;;9.50;99.90;;;;;;5045827;28;19924;-74
2022/03/28 12:04:32;;;;;;;;;;;9.60;99.90;;;;;;5014697;28;20002;-74
2022/03/28 12:06:58;;;;;;;;;;;9.60;99.90;;;;;;5050616;28;19936;-74
2022/03/28 12:09:23;;;;;;;;;;;9.80;99.90;;;;;;5050373;28;19916;-74
2022/03/28 12:11:57;;;;;;;;;;;9.90;99.90;;;;;;5048761;28;19921;-75
2022/03/28 12:14:23;;;;;;;;;;;9.70;99.90;;;;;;5048931;28;19924;-73
2022/03/28 12:16:50;;;;;;;;;;;9.70;99.90;;;;;;5032514;28;19916;-73
2022/03/28 12:19:20;;;;;;;;;;;9.70;99.90;;;;;;5046715;28;19917;-74
2022/03/28 12:21:46;;;;;;;;;;;9.70;99.90;;;;;;5058417;28;19952;-74
2022/03/28 12:24:12;;;;;;;;;;;9.80;99.90;;;;;;5044165;28;19917;-90
2022/03/28 12:26:48;;;;;;;;;;;9.80;99.90;;;;;;5049490;28;20366;-77
2022/03/28 12:29:15;;;;;;;;;;;10.00;99.90;;;;;;5046285;28;19936;-76
2022/03/28 12:31:45;;;;;;;;;;;10.20;99.90;;;;;;5047462;28;19934;-74
2022/03/28 12:34:11;;;;;;;;;;;9.90;99.90;;;;;;5030800;28;19917;-73
2022/03/28 12:36:37;;;;;;;;;;;9.70;99.90;;;;;;5047027;28;19973;-74
2022/03/28 12:39:06;;;;;;;;;;;9.70;99.90;;;;;;5048024;28;19995;-84
2022/03/28 12:41:48;;;;;;;;;;;9.80;99.90;;;;;;5030335;28;19917;-73
2022/03/28 12:44:14;;;;;;;;;;;9.80;99.90;;;;;;5049070;28;19943;-73
2022/03/28 12:46:39;;;;;;;;;;;9.70;99.90;;;;;;5048422;28;20394;-73
2022/03/28 12:49:14;;;;;;;;;;;9.50;99.90;;;;;;5048987;28;20011;-73
2022/03/28 12:51:40;;;;;;;;;;;9.40;99.90;;;;;;5046061;28;19920;-73
2022/03/28 12:54:10;;;;;;;;;;;9.50;99.90;;;;;;5049581;28;19943;-73
2022/03/28 12:56:48;;;;;;;;;;;9.40;99.90;;;;;;5046070;28;19924;-84
2022/03/28 12:59:20;;;;;;;;;;;9.30;99.90;;;;;;5034270;28;19966;-81
2022/03/28 13:01:46;;;;;;;;;;;9.30;99.90;;;;;;5035487;28;19971;-74
2022/03/28 13:04:17;;;;;;;;;;;9.20;99.90;;;;;;5054031;28;19917;-72
2022/03/28 13:06:45;;;;;;;;;;;9.30;99.90;;;;;;5031217;28;20008;-74
2022/03/28 13:09:11;;;;;;;;;;;9.10;99.90;;;;;;5053003;28;19920;-74
2022/03/28 13:11:37;;;;;;;;;;;9.10;99.90;;;;;;5054270;28;19974;-74
2022/03/28 13:14:06;;;;;;;;;;;9.30;99.90;;;;;;5052379;28;19928;-85
2022/03/28 13:16:33;;;;;;;;;;;9.40;99.90;;;;;;5034987;28;21776;-73
2022/03/28 13:19:05;;;;;;;;;;;9.60;99.90;;;;;;5054865;28;19962;-86
2022/03/28 13:21:32;;;;;;;;;;;9.60;99.90;;;;;;5051946;28;19916;-73
2022/03/28 13:24:05;;;;;;;;;;;9.40;99.90;;;;;;5032588;28;19967;-84
2022/03/28 13:26:37;;;;;;;;;;;9.30;99.90;;;;;;5052924;28;20223;-73
2022/03/28 13:29:15;;;;;;;;;;;9.20;99.90;;;;;;5051977;28;19927;-78
2022/03/28 13:31:41;;;;;;;;;;;9.10;99.90;;;;;;5049124;28;20043;-73
2022/03/28 13:34:06;;;;;;;;;;;9.10;99.90;;;;;;5035796;28;20011;-73
2022/03/28 13:36:32;;;;;;;;;;;9.20;99.90;;;;;;5051300;28;19916;-87
2022/03/28 13:38:57;;;;;;;;;;;9.30;99.90;;;;;;5052477;28;19917;-87
2022/03/28 13:41:23;;;;;;;;;;;9.50;99.90;;;;;;5051257;28;19920;-73
2022/03/28 13:43:49;;;;;;;;;;;9.90;99.90;;;;;;5052608;28;19944;-74
2022/03/28 13:46:17;;;;;;;;;;;10.00;99.90;;;;;;5033574;28;19964;-74
2022/03/28 13:48:43;;;;;;;;;;;10.20;99.90;;;;;;5049480;28;20366;-74
2022/03/28 13:51:09;;;;;;;;;;;10.40;99.90;;;;;;5049554;28;19964;-73
2022/03/28 13:53:37;;;;;;;;;;;10.70;99.90;;;;;;5054005;28;19920;-73
2022/03/28 13:56:03;;;;;;;;;;;10.90;99.90;;;;;;5050882;28;19913;-73
2022/03/28 13:58:29;;;;;;;;;;;10.90;99.90;;;;;;5051096;28;20026;-73
2022/03/28 14:00:58;;;;;;;;;;;11.00;99.90;;;;;;5051118;28;20386;-73
2022/03/28 14:03:25;;;;;;;;;;;10.90;99.90;;;;;;5053531;28;19947;-72
2022/03/28 14:05:51;;;;;;;;;;;10.90;99.90;;;;;;5034565;28;19916;-73
2022/03/28 14:08:17;;;;;;;;;;;10.90;99.90;;;;;;5052388;28;19966;-73
2022/03/28 14:10:42;;;;;;;;;;;11.00;99.90;;;;;;5049024;28;20231;-73
2022/03/28 14:13:08;;;;;;;;;;;11.10;99.90;;;;;;5051095;28;19939;-74
2022/03/28 14:15:35;;;;;;;;;;;11.20;99.90;;;;;;5048439;28;19921;-74
2022/03/28 14:18:01;;;;;;;;;;;11.30;99.90;;;;;;5034398;28;19913;-85
2022/03/28 14:20:27;;;;;;;;;;;11.30;99.90;;;;;;5053950;28;19948;-72
2022/03/28 14:22:52;;;;;;;;;;;11.30;99.90;;;;;;5049398;28;19970;-72
2022/03/28 14:25:18;;;;;;;;;;;11.20;99.90;;;;;;5052363;28;19917;-73
2022/03/28 14:27:45;;;;;;;;;;;11.30;99.90;;;;;;5049884;28;20015;-84
2022/03/28 14:30:13;;;;;;;;;;;11.20;99.90;;;;;;5031895;28;20024;-72